createdAt,value
2022-08-20T00:01:16.132Z,100.00
2022-08-20T00:03:44.743Z,100.00
2022-08-20T00:06:24.315Z,100.00
2022-08-20T00:08:51.950Z,100.00
2022-08-20T00:11:24.012Z,100.00
2022-08-20T00:13:57.111Z,100.00
2022-08-20T00:16:28.018Z,100.00
2022-08-20T00:18:55.311Z,100.00
2022-08-20T00:21:23.379Z,100.00
2022-08-20T00:23:55.047Z,100.00
2022-08-20T00:26:23.350Z,100.00
2022-08-20T00:28:50.897Z,100.00
2022-08-20T00:31:21.738Z,100.00
2022-08-20T00:33:49.911Z,100.00
2022-08-20T00:36:17.703Z,100.00
2022-08-20T00:38:47.170Z,100.00
2022-08-20T00:41:23.266Z,100.00
2022-08-20T00:44:12.267Z,100.00
2022-08-20T00:46:41.133Z,100.00
2022-08-20T00:49:22.889Z,100.00
2022-08-20T00:51:55.678Z,100.00
2022-08-20T00:54:40.159Z,100.00
2022-08-20T00:57:54.817Z,100.00
2022-08-20T01:00:34.081Z,100.00
2022-08-20T01:03:01.766Z,100.00
2022-08-20T01:05:30.127Z,100.00
2022-08-20T01:07:58.221Z,100.00
2022-08-20T01:10:35.067Z,100.00
2022-08-20T01:13:11.042Z,100.00
2022-08-20T01:15:44.028Z,100.00
2022-08-20T01:18:18.401Z,100.00
2022-08-20T01:20:52.109Z,100.00
2022-08-20T01:23:39.760Z,100.00
2022-08-20T01:26:19.668Z,100.00
2022-08-20T01:28:59.262Z,100.00
2022-08-20T01:31:33.933Z,100.00
2022-08-20T01:34:04.363Z,100.00
2022-08-20T01:36:46.471Z,100.00
2022-08-20T01:39:17.824Z,100.00
2022-08-20T01:42:15.447Z,100.00
2022-08-20T01:44:44.776Z,100.00
2022-08-20T01:47:35.366Z,100.00
2022-08-20T01:50:18.597Z,100.00
2022-08-20T01:53:21.578Z,100.00
2022-08-20T01:55:48.353Z,100.00
2022-08-20T01:58:15.360Z,100.00
2022-08-20T02:00:42.395Z,100.00
2022-08-20T02:03:09.568Z,100.00
2022-08-20T02:05:36.667Z,100.00
2022-08-20T02:08:04.575Z,100.00
2022-08-20T02:10:31.930Z,100.00
2022-08-20T02:13:01.217Z,100.00
2022-08-20T02:15:35.017Z,100.00
2022-08-20T02:18:08.335Z,100.00
2022-08-20T02:20:37.246Z,100.00
2022-08-20T02:23:05.809Z,100.00
2022-08-20T02:25:36.317Z,100.00
2022-08-20T02:28:08.212Z,100.00
2022-08-20T02:30:40.748Z,100.00
2022-08-20T02:33:11.945Z,100.00
2022-08-20T02:35:42.881Z,100.00
2022-08-20T02:38:11.389Z,100.00
2022-08-20T02:40:38.577Z,100.00
2022-08-20T02:43:05.932Z,100.00
2022-08-20T02:45:40.347Z,100.00
2022-08-20T02:48:07.153Z,100.00
2022-08-20T02:50:34.050Z,100.00
2022-08-20T02:53:00.845Z,100.00
2022-08-20T02:55:28.492Z,100.00
2022-08-20T02:57:59.513Z,100.00
2022-08-20T03:00:37.892Z,100.00
2022-08-20T03:03:08.216Z,100.00
2022-08-20T03:05:36.398Z,100.00
2022-08-20T03:08:08.529Z,100.00
2022-08-20T03:10:38.332Z,100.00
2022-08-20T03:13:06.520Z,100.00
2022-08-20T03:15:34.673Z,100.00
2022-08-20T03:18:01.551Z,100.00
2022-08-20T03:20:29.443Z,100.00
2022-08-20T03:22:57.633Z,100.00
2022-08-20T03:25:25.264Z,100.00
2022-08-20T03:27:54.427Z,100.00
2022-08-20T03:30:23.891Z,100.00
2022-08-20T03:32:50.912Z,100.00
2022-08-20T03:35:21.526Z,100.00
2022-08-20T03:37:48.879Z,100.00
2022-08-20T03:40:35.463Z,100.00
2022-08-20T03:43:02.336Z,100.00
2022-08-20T03:45:30.042Z,100.00
2022-08-20T03:47:58.197Z,100.00
2022-08-20T03:50:29.110Z,100.00
2022-08-20T03:52:57.844Z,100.00
2022-08-20T03:55:26.269Z,100.00
2022-08-20T03:58:02.238Z,100.00
2022-08-20T04:00:37.523Z,100.00
2022-08-20T04:03:06.510Z,100.00
2022-08-20T04:05:34.461Z,100.00
2022-08-20T04:08:03.690Z,100.00
2022-08-20T04:10:31.567Z,100.00
2022-08-20T04:12:58.356Z,100.00
2022-08-20T04:15:26.565Z,100.00
2022-08-20T04:17:54.303Z,100.00
2022-08-20T04:20:24.023Z,100.00
2022-08-20T04:22:59.446Z,100.00
2022-08-20T04:25:29.789Z,100.00
2022-08-20T04:27:59.155Z,100.00
2022-08-20T04:30:28.071Z,100.00
2022-08-20T04:32:56.233Z,100.00
2022-08-20T04:35:27.337Z,100.00
2022-08-20T04:38:15.135Z,100.00
2022-08-20T04:40:54.351Z,100.00
2022-08-20T04:43:23.470Z,100.00
2022-08-20T04:45:52.146Z,100.00
2022-08-20T04:48:20.654Z,100.00
2022-08-20T04:50:47.682Z,100.00
2022-08-20T04:53:21.631Z,100.00
2022-08-20T04:55:54.495Z,100.00
2022-08-20T04:58:33.892Z,100.00
2022-08-20T05:01:09.892Z,100.00
2022-08-20T05:03:41.477Z,100.00
2022-08-20T05:06:11.503Z,100.00
2022-08-20T05:08:39.254Z,100.00
2022-08-20T05:11:33.945Z,100.00
2022-08-20T05:13:56.206Z,100.00
2022-08-20T05:16:24.677Z,100.00
2022-08-20T05:18:52.757Z,100.00
2022-08-20T05:21:21.189Z,100.00
2022-08-20T05:23:49.550Z,100.00
2022-08-20T05:26:20.206Z,100.00
2022-08-20T05:28:54.123Z,100.00
2022-08-20T05:31:31.694Z,100.00
2022-08-20T05:34:00.940Z,100.00
2022-08-20T05:36:27.779Z,100.00
2022-08-20T05:38:54.900Z,100.00
2022-08-20T05:41:29.456Z,100.00
2022-08-20T05:44:03.419Z,100.00
2022-08-20T05:46:32.213Z,100.00
2022-08-20T05:49:02.079Z,100.00
2022-08-20T05:51:30.152Z,100.00
2022-08-20T05:53:59.472Z,100.00
2022-08-20T05:56:30.864Z,100.00
2022-08-20T05:59:04.437Z,100.00
2022-08-20T06:01:36.055Z,100.00
2022-08-20T06:04:22.613Z,100.00
2022-08-20T06:06:51.214Z,100.00
2022-08-20T06:09:27.976Z,100.00
2022-08-20T06:11:59.673Z,100.00
2022-08-20T06:14:26.775Z,100.00
2022-08-20T06:16:57.569Z,100.00
2022-08-20T06:19:26.197Z,100.00
2022-08-20T06:21:53.170Z,100.00
2022-08-20T06:24:21.423Z,100.00
2022-08-20T06:26:48.277Z,100.00
2022-08-20T06:29:16.069Z,100.00
2022-08-20T06:31:42.896Z,100.00
2022-08-20T06:34:09.705Z,100.00
2022-08-20T06:36:36.538Z,100.00
2022-08-20T06:39:03.805Z,100.00
2022-08-20T06:41:36.297Z,100.00
2022-08-20T06:44:05.585Z,100.00
2022-08-20T06:46:33.225Z,100.00
2022-08-20T06:49:00.171Z,100.00
2022-08-20T06:51:27.131Z,100.00
2022-08-20T06:53:54.018Z,100.00
2022-08-20T06:56:20.873Z,100.00
2022-08-20T06:58:47.755Z,100.00
2022-08-20T07:01:15.035Z,100.00
2022-08-20T07:03:54.336Z,100.00
2022-08-20T07:06:25.626Z,100.00
2022-08-20T07:08:56.510Z,100.00
2022-08-20T07:11:28.023Z,100.00
2022-08-20T07:13:58.928Z,100.00
2022-08-20T07:16:27.325Z,100.00
2022-08-20T07:18:54.188Z,100.00
2022-08-20T07:21:20.970Z,100.00
2022-08-20T07:23:49.008Z,100.00
2022-08-20T07:26:16.251Z,100.00
2022-08-20T07:28:43.099Z,100.00
2022-08-20T07:31:28.535Z,100.00
2022-08-20T07:33:58.159Z,100.00
2022-08-20T07:36:27.131Z,100.00
2022-08-20T07:38:54.474Z,100.00
2022-08-20T07:41:21.606Z,100.00
2022-08-20T07:43:48.993Z,100.00
2022-08-20T07:46:20.875Z,100.00
2022-08-20T07:48:50.594Z,100.00
2022-08-20T07:51:22.426Z,100.00
2022-08-20T07:53:51.796Z,100.00
2022-08-20T07:56:24.353Z,100.00
2022-08-20T07:58:55.543Z,100.00
2022-08-20T08:01:30.476Z,100.00
2022-08-20T08:03:58.513Z,100.00
2022-08-20T08:06:30.039Z,100.00
2022-08-20T08:09:11.065Z,100.00
2022-08-20T08:11:44.967Z,100.00
2022-08-20T08:14:14.203Z,100.00
2022-08-20T08:16:45.331Z,100.00
2022-08-20T08:19:14.539Z,100.00
2022-08-20T08:21:41.791Z,100.00
2022-08-20T08:24:08.650Z,100.00
2022-08-20T08:26:35.405Z,100.00
2022-08-20T08:29:02.783Z,100.00
2022-08-20T08:31:29.666Z,100.00
2022-08-20T08:33:56.637Z,100.00
2022-08-20T08:36:26.397Z,100.00
2022-08-20T08:38:54.735Z,100.00
2022-08-20T08:41:50.049Z,100.00
2022-08-20T08:44:31.309Z,100.00
2022-08-20T08:47:19.088Z,99.04
2022-08-20T08:49:47.671Z,99.24
2022-08-20T08:52:31.637Z,97.18
2022-08-20T08:55:05.249Z,96.73
2022-08-20T08:57:32.420Z,95.43
2022-08-20T09:00:12.671Z,95.54
2022-08-20T09:02:39.711Z,95.83
2022-08-20T09:05:17.867Z,94.93
2022-08-20T09:07:51.889Z,94.49
2022-08-20T09:10:22.904Z,93.05
2022-08-20T09:12:50.750Z,89.56
2022-08-20T09:15:19.199Z,90.10
2022-08-20T09:17:46.000Z,88.39
2022-08-20T09:20:13.129Z,88.25
2022-08-20T09:22:41.381Z,87.41
2022-08-20T09:25:08.873Z,86.20
2022-08-20T09:27:35.687Z,86.24
2022-08-20T09:30:05.408Z,84.20
2022-08-20T09:32:32.969Z,84.81
2022-08-20T09:35:00.031Z,87.85
2022-08-20T09:37:35.054Z,88.07
2022-08-20T09:40:05.341Z,84.93
2022-08-20T09:42:40.252Z,85.10
2022-08-20T09:45:10.796Z,85.01
2022-08-20T09:47:41.691Z,83.07
2022-08-20T09:50:24.288Z,83.09
2022-08-20T09:52:53.748Z,82.78
2022-08-20T09:55:38.560Z,81.12
2022-08-20T09:58:41.589Z,80.08
2022-08-20T10:01:15.137Z,78.90
2022-08-20T10:03:43.402Z,80.02
2022-08-20T10:06:11.423Z,78.77
2022-08-20T10:08:38.726Z,78.93
2022-08-20T10:11:05.741Z,80.76
2022-08-20T10:13:32.546Z,75.42
2022-08-20T10:15:59.323Z,71.73
2022-08-20T10:18:26.155Z,70.20
2022-08-20T10:20:53.009Z,72.83
2022-08-20T10:23:19.868Z,76.40
2022-08-20T10:25:46.672Z,78.35
2022-08-20T10:28:13.490Z,80.16
2022-08-20T10:30:40.272Z,84.26
2022-08-20T10:33:07.138Z,84.61
2022-08-20T10:35:34.282Z,84.37
2022-08-20T10:38:01.158Z,83.47
2022-08-20T10:40:28.162Z,86.83
2022-08-20T10:42:54.981Z,89.21
2022-08-20T10:45:21.776Z,89.61
2022-08-20T10:47:48.825Z,88.63
2022-08-20T10:50:17.138Z,88.85
2022-08-20T10:52:44.116Z,89.96
2022-08-20T10:55:11.322Z,90.14
2022-08-20T10:57:40.727Z,91.51
2022-08-20T11:00:10.369Z,91.87
2022-08-20T11:02:37.620Z,91.87
2022-08-20T11:05:06.280Z,91.91
2022-08-20T11:07:50.635Z,92.30
2022-08-20T11:10:26.258Z,94.11
2022-08-20T11:12:53.138Z,95.36
2022-08-20T11:15:19.925Z,94.15
2022-08-20T11:17:47.266Z,93.64
2022-08-20T11:20:18.290Z,94.44
2022-08-20T11:22:45.214Z,97.85
2022-08-20T11:25:12.064Z,96.39
2022-08-20T11:27:44.385Z,95.65
2022-08-20T11:30:16.655Z,96.21
2022-08-20T11:32:43.473Z,94.75
2022-08-20T11:35:40.543Z,95.71
2022-08-20T11:37:59.851Z,94.01
2022-08-20T11:40:28.094Z,95.30
2022-08-20T11:43:14.168Z,94.68
2022-08-20T11:45:41.294Z,94.62
2022-08-20T11:48:08.060Z,94.72
2022-08-20T11:50:34.872Z,93.79
2022-08-20T11:53:01.858Z,93.60
2022-08-20T11:55:30.155Z,93.54
2022-08-20T11:58:00.323Z,91.33
2022-08-20T12:00:33.189Z,91.89
2022-08-20T12:03:07.891Z,90.87
2022-08-20T12:05:41.721Z,87.83
2022-08-20T12:08:09.317Z,84.11
2022-08-20T12:10:38.068Z,79.48
2022-08-20T12:13:07.112Z,78.40
2022-08-20T12:15:36.721Z,79.77
2022-08-20T12:18:08.482Z,75.22
2022-08-20T12:20:37.824Z,78.21
2022-08-20T12:23:04.866Z,76.31
2022-08-20T12:27:59.663Z,77.20
2022-08-20T12:30:26.704Z,77.82
2022-08-20T12:32:53.655Z,78.24
2022-08-20T12:35:20.694Z,78.76
2022-08-20T12:37:47.566Z,77.99
2022-08-20T12:40:32.508Z,78.97
2022-08-20T12:43:02.034Z,77.70
2022-08-20T12:45:30.164Z,80.37
2022-08-20T12:48:03.706Z,81.18
2022-08-20T12:50:31.960Z,82.22
2022-08-20T12:52:59.304Z,82.31
2022-08-20T12:55:26.462Z,83.42
2022-08-20T12:57:59.324Z,81.93
2022-08-20T13:00:36.527Z,84.70
2022-08-20T13:03:06.017Z,83.83
2022-08-20T13:05:34.441Z,88.40
2022-08-20T13:08:02.335Z,86.23
2022-08-20T13:10:35.693Z,86.94
2022-08-20T13:13:03.906Z,84.87
2022-08-20T13:15:32.724Z,82.47
2022-08-20T13:18:02.742Z,82.11
2022-08-20T13:20:34.411Z,80.68
2022-08-20T13:25:30.731Z,83.25
2022-08-20T13:28:00.912Z,81.97
2022-08-20T13:30:28.019Z,81.88
2022-08-20T13:32:54.983Z,82.05
2022-08-20T13:35:21.974Z,79.88
2022-08-20T13:37:49.974Z,78.79
2022-08-20T13:40:18.009Z,77.48
2022-08-20T13:42:45.009Z,78.15
2022-08-20T13:45:12.294Z,77.85
2022-08-20T13:47:41.667Z,77.01
2022-08-20T13:50:15.388Z,76.98
2022-08-20T13:52:43.635Z,76.02
2022-08-20T13:55:15.150Z,76.36
2022-08-20T13:57:43.462Z,74.63
2022-08-20T14:00:16.082Z,75.18
2022-08-20T14:02:43.572Z,72.13
2022-08-20T14:05:12.091Z,72.37
2022-08-20T14:07:44.008Z,71.36
2022-08-20T14:10:17.342Z,70.38
2022-08-20T14:12:44.504Z,70.97
2022-08-20T14:15:12.284Z,72.74
2022-08-20T14:17:43.109Z,72.50
2022-08-20T14:20:16.741Z,74.91
2022-08-20T14:22:44.701Z,78.30
2022-08-20T14:25:15.317Z,76.52
2022-08-20T14:27:42.673Z,78.19
2022-08-20T14:30:27.515Z,80.20
2022-08-20T14:32:54.931Z,79.66
2022-08-20T14:35:22.837Z,81.10
2022-08-20T14:37:53.325Z,82.32
2022-08-20T14:40:23.347Z,84.22
2022-08-20T14:42:51.857Z,85.57
2022-08-20T14:45:20.414Z,88.04
2022-08-20T14:47:55.428Z,89.69
2022-08-20T14:50:31.409Z,90.00
2022-08-20T14:52:59.085Z,91.36
2022-08-20T14:55:30.924Z,90.53
2022-08-20T14:57:58.024Z,90.60
2022-08-20T15:00:30.969Z,90.57
2022-08-20T15:02:58.342Z,87.27
2022-08-20T15:05:26.050Z,83.94
2022-08-20T15:07:56.535Z,86.19
2022-08-20T15:10:30.845Z,86.45
2022-08-20T15:12:58.734Z,85.15
2022-08-20T15:15:26.215Z,82.70
2022-08-20T15:17:57.796Z,79.52
2022-08-20T15:20:28.232Z,77.96
2022-08-20T15:22:55.707Z,79.35
2022-08-20T15:25:27.507Z,74.09
2022-08-20T15:28:04.698Z,65.20
2022-08-20T15:30:32.560Z,62.58
2022-08-20T15:32:59.692Z,61.36
2022-08-20T15:35:28.977Z,61.39
2022-08-20T15:37:58.467Z,60.56
2022-08-20T15:40:29.158Z,59.45
2022-08-20T15:43:00.932Z,61.27
2022-08-20T15:45:28.326Z,64.62
2022-08-20T15:48:02.441Z,65.98
2022-08-20T15:51:00.564Z,67.82
2022-08-20T15:53:39.886Z,67.99
2022-08-20T15:56:21.145Z,67.89
2022-08-20T15:59:06.361Z,69.26
2022-08-20T16:02:26.655Z,67.14
2022-08-20T16:05:09.901Z,67.66
2022-08-20T16:07:49.662Z,67.55
2022-08-20T16:10:34.353Z,67.50
2022-08-20T16:13:06.765Z,69.50
2022-08-20T16:15:39.772Z,71.16
2022-08-20T16:18:09.661Z,71.89
2022-08-20T16:20:42.851Z,69.05
2022-08-20T16:23:17.360Z,72.08
2022-08-20T16:26:20.746Z,67.21
2022-08-20T16:29:04.898Z,70.76
2022-08-20T16:31:48.962Z,68.16
2022-08-20T16:34:35.367Z,70.48
2022-08-20T16:37:25.467Z,70.68
2022-08-20T16:40:18.295Z,71.30
2022-08-20T16:42:48.613Z,71.00
2022-08-20T16:45:51.678Z,72.38
2022-08-20T16:48:19.623Z,75.99
2022-08-20T16:51:02.741Z,76.93
2022-08-20T16:53:29.537Z,77.91
2022-08-20T16:55:57.349Z,76.95
2022-08-20T16:58:24.398Z,78.10
2022-08-20T17:01:10.513Z,76.06
2022-08-20T17:03:40.096Z,69.62
2022-08-20T17:06:33.348Z,77.51
2022-08-20T17:09:15.012Z,78.41
2022-08-20T17:11:47.775Z,78.92
2022-08-20T17:14:18.934Z,80.62
2022-08-20T17:16:50.154Z,79.35
2022-08-20T17:19:30.499Z,79.78
2022-08-20T17:22:14.770Z,80.71
2022-08-20T17:24:41.786Z,83.00
2022-08-20T17:27:16.496Z,82.38
2022-08-20T17:29:54.866Z,82.03
2022-08-20T17:32:23.399Z,83.72
2022-08-20T17:34:55.711Z,85.65
2022-08-20T17:37:27.813Z,85.86
2022-08-20T17:40:40.178Z,85.07
2022-08-20T17:43:10.525Z,84.78
2022-08-20T17:45:43.685Z,85.14
2022-08-20T17:48:24.033Z,85.10
2022-08-20T17:50:52.500Z,85.84
2022-08-20T17:53:29.978Z,86.23
2022-08-20T17:56:03.097Z,86.80
2022-08-20T17:58:40.523Z,86.30
2022-08-20T18:01:22.258Z,86.91
2022-08-20T18:03:52.687Z,87.36
2022-08-20T18:06:34.695Z,87.99
2022-08-20T18:09:16.996Z,88.46
2022-08-20T18:11:44.821Z,88.89
2022-08-20T18:14:17.640Z,88.79
2022-08-20T18:17:17.402Z,88.18
2022-08-20T18:20:06.519Z,89.47
2022-08-20T18:22:44.638Z,90.00
2022-08-20T18:25:29.627Z,90.36
2022-08-20T18:28:05.626Z,90.34
2022-08-20T18:30:33.572Z,90.79
2022-08-20T18:33:10.866Z,91.79
2022-08-20T18:35:46.265Z,92.36
2022-08-20T18:38:22.407Z,91.95
2022-08-20T18:40:54.460Z,92.21
2022-08-20T18:43:30.640Z,91.97
2022-08-20T18:46:18.941Z,92.30
2022-08-20T18:48:56.480Z,92.04
2022-08-20T18:51:36.885Z,93.30
2022-08-20T18:54:04.654Z,93.21
2022-08-20T18:56:42.886Z,93.31
2022-08-20T18:59:20.037Z,92.79
2022-08-20T19:01:49.276Z,92.64
2022-08-20T19:04:32.022Z,92.41
2022-08-20T19:07:06.520Z,92.05
2022-08-20T19:10:27.897Z,92.38
2022-08-20T19:13:00.950Z,94.06
2022-08-20T19:15:28.356Z,94.50
2022-08-20T19:18:51.394Z,94.10
2022-08-20T19:21:27.466Z,93.96
2022-08-20T19:23:57.813Z,93.97
2022-08-20T19:26:32.114Z,94.13
2022-08-20T19:29:10.669Z,94.28
2022-08-20T19:31:38.046Z,94.61
2022-08-20T19:34:25.826Z,94.28
2022-08-20T19:37:10.025Z,94.20
2022-08-20T19:39:54.053Z,94.01
2022-08-20T19:42:30.120Z,93.88
2022-08-20T19:45:02.135Z,94.57
2022-08-20T19:47:41.502Z,94.98
2022-08-20T19:50:48.585Z,96.36
2022-08-20T19:53:31.298Z,96.77
2022-08-20T19:56:11.312Z,97.00
2022-08-20T19:58:38.509Z,96.53
2022-08-20T20:01:18.762Z,96.15
2022-08-20T20:04:14.635Z,97.33
2022-08-20T20:06:46.048Z,97.78
2022-08-20T20:09:27.328Z,98.75
2022-08-20T20:12:22.667Z,99.15
2022-08-20T20:14:52.880Z,98.82
2022-08-20T20:17:36.808Z,99.50
2022-08-20T20:20:33.495Z,100.00
2022-08-20T20:23:13.666Z,100.00
2022-08-20T20:25:47.289Z,100.00
2022-08-20T20:28:22.869Z,100.00
2022-08-20T20:30:50.031Z,100.00
2022-08-20T20:33:19.915Z,100.00
2022-08-20T20:35:47.091Z,100.00
2022-08-20T20:38:28.190Z,100.00
2022-08-20T20:41:00.196Z,100.00
2022-08-20T20:43:32.390Z,100.00
2022-08-20T20:46:04.618Z,100.00
2022-08-20T20:48:48.561Z,100.00
2022-08-20T20:51:33.639Z,100.00
2022-08-20T20:54:06.878Z,100.00
2022-08-20T20:56:41.735Z,100.00
2022-08-20T20:59:10.507Z,100.00
2022-08-20T21:01:50.043Z,100.00
2022-08-20T21:04:22.354Z,100.00
2022-08-20T21:06:52.226Z,99.77
2022-08-20T21:09:19.854Z,99.40
2022-08-20T21:11:47.329Z,99.80
2022-08-20T21:14:14.665Z,99.32
2022-08-20T21:16:42.183Z,99.69
2022-08-20T21:19:10.481Z,99.46
2022-08-20T21:21:39.010Z,99.72
2022-08-20T21:24:07.623Z,99.61
2022-08-20T21:26:35.059Z,99.01
2022-08-20T21:29:02.132Z,98.69
2022-08-20T21:31:34.243Z,98.45
2022-08-20T21:34:01.477Z,98.86
2022-08-20T21:36:29.066Z,98.53
2022-08-20T21:38:56.321Z,98.77
2022-08-20T21:41:30.005Z,98.94
2022-08-20T21:44:07.333Z,98.95
2022-08-20T21:46:43.269Z,98.77
2022-08-20T21:49:10.154Z,98.17
2022-08-20T21:51:36.985Z,98.48
2022-08-20T21:54:03.842Z,98.30
2022-08-20T21:56:33.794Z,98.11
2022-08-20T21:59:01.785Z,97.91
2022-08-20T22:01:28.643Z,97.59
2022-08-20T22:03:55.540Z,97.23
2022-08-20T22:06:22.454Z,97.54
2022-08-20T22:08:49.282Z,98.20
2022-08-20T22:11:17.054Z,98.16
2022-08-20T22:13:45.065Z,98.95
2022-08-20T22:16:16.302Z,98.98
2022-08-20T22:18:43.176Z,99.40
2022-08-20T22:21:15.516Z,99.94
2022-08-20T22:23:42.440Z,100.00
2022-08-20T22:26:09.996Z,100.00
2022-08-20T22:28:37.441Z,100.00
2022-08-20T22:31:05.647Z,99.57
2022-08-20T22:33:33.898Z,99.50
2022-08-20T22:36:02.405Z,98.45
2022-08-20T22:38:29.569Z,98.86
2022-08-20T22:40:56.474Z,99.38
2022-08-20T22:43:23.722Z,98.95
2022-08-20T22:45:56.018Z,99.48
2022-08-20T22:48:22.850Z,99.01
2022-08-20T22:50:51.122Z,98.55
2022-08-20T22:53:20.092Z,98.25
2022-08-20T22:55:48.329Z,97.18
2022-08-20T22:58:16.786Z,96.64
2022-08-20T23:00:46.265Z,96.14
2022-08-20T23:03:16.378Z,95.99
2022-08-20T23:05:48.803Z,95.36
2022-08-20T23:08:15.721Z,96.07
2022-08-20T23:10:42.915Z,96.47
2022-08-20T23:13:09.989Z,96.65
2022-08-20T23:15:41.454Z,98.25
2022-08-20T23:18:18.269Z,98.46
2022-08-20T23:20:52.550Z,97.95
2022-08-20T23:23:19.821Z,97.86
2022-08-20T23:25:47.032Z,97.22
2022-08-20T23:28:14.055Z,96.16
2022-08-20T23:30:40.822Z,95.92
2022-08-20T23:33:07.615Z,95.51
2022-08-20T23:35:36.098Z,95.00
2022-08-20T23:38:03.029Z,95.38
2022-08-20T23:40:32.075Z,95.55
2022-08-20T23:43:00.593Z,95.13
2022-08-20T23:45:28.885Z,95.29
2022-08-20T23:47:55.835Z,95.73
2022-08-20T23:50:28.900Z,95.79
2022-08-20T23:52:57.444Z,96.17
2022-08-20T23:55:24.566Z,96.00
2022-08-20T23:57:52.191Z,96.22
